Time;durP1;ratioP1;P1;durP2;ratioP2;P2;SDS_P1;SDS_P2;PMS_P1;PMS_P2;Temp;Humidity;BMP_temperature;BMP_pressure;BME280_temperature;BME280_humidity;BME280_pressure;Samples;Min_cycle;Max_cycle;Signal;HPM_P1;HPM_P2
2022/10/25 00:01:24;;;;;;;53.53;28.20;;;12.10;99.90;;;;;;4933360;29;20040;-69
2022/10/25 00:03:50;;;;;;;57.55;27.83;;;12.20;99.90;;;;;;4932918;29;20051;-69
2022/10/25 00:06:16;;;;;;;59.30;29.98;;;12.20;99.90;;;;;;4929474;29;20072;-69
2022/10/25 00:08:42;;;;;;;57.55;30.20;;;12.10;99.90;;;;;;4932132;29;20047;-70
2022/10/25 00:11:14;;;;;;;78.70;31.65;;;12.20;99.90;;;;;;4929382;29;20044;-69
2022/10/25 00:13:40;;;;;;;59.42;31.08;;;12.10;99.90;;;;;;4947887;29;20535;-70
2022/10/25 00:16:13;;;;;;;60.25;31.02;;;12.10;99.90;;;;;;4947119;29;20056;-69
2022/10/25 00:18:38;;;;;;;59.55;30.38;;;12.20;99.90;;;;;;4930928;29;20496;-69
2022/10/25 00:21:04;;;;;;;56.63;30.33;;;12.40;99.90;;;;;;4932420;29;20056;-70
2022/10/25 00:23:30;;;;;;;69.45;33.15;;;12.20;99.90;;;;;;4930998;29;20067;-69
2022/10/25 00:26:03;;;;;;;64.30;30.55;;;12.20;99.90;;;;;;4946934;29;20058;-70
2022/10/25 00:28:29;;;;;;;61.00;32.25;;;12.20;99.90;;;;;;4927812;29;20060;-69
2022/10/25 00:31:03;;;;;;;68.97;32.90;;;12.30;99.90;;;;;;4929168;29;20071;-70
2022/10/25 00:33:30;;;;;;;59.03;33.13;;;12.10;99.90;;;;;;4923390;29;20055;-70
2022/10/25 00:36:03;;;;;;;76.00;35.00;;;12.10;99.90;;;;;;4915114;29;20048;-70
2022/10/25 00:38:29;;;;;;;58.42;33.53;;;12.10;99.90;;;;;;4922524;29;20138;-70
2022/10/25 00:40:55;;;;;;;68.32;32.83;;;12.10;99.90;;;;;;4931743;29;20047;-69
2022/10/25 00:43:32;;;;;;;67.32;33.50;;;12.10;99.90;;;;;;4931678;29;20508;-70
2022/10/25 00:45:59;;;;;;;67.65;33.83;;;12.10;99.90;;;;;;4926708;29;20087;-70
2022/10/25 00:48:25;;;;;;;66.25;33.08;;;12.00;99.90;;;;;;4933218;29;20058;-69
2022/10/25 00:50:53;;;;;;;79.57;37.47;;;12.10;99.90;;;;;;4929762;29;20059;-70
2022/10/25 00:53:21;;;;;;;;;;;12.20;99.90;;;;;;4930786;29;20052;-69
2022/10/25 00:55:53;;;;;;;77.07;36.60;;;12.10;99.90;;;;;;4930715;29;19973;-70
2022/10/25 00:58:22;;;;;;;85.13;36.80;;;12.20;99.90;;;;;;4931057;29;20055;-69
2022/10/25 01:00:48;;;;;;;78.07;34.20;;;12.30;99.90;;;;;;4929638;29;20051;-69
2022/10/25 01:03:16;;;;;;;72.43;35.17;;;12.30;99.90;;;;;;4948086;28;20043;-69
2022/10/25 01:05:42;;;;;;;;;;;12.30;99.90;;;;;;4930531;29;20058;-69
2022/10/25 01:08:09;;;;;;;84.55;37.03;;;12.40;99.90;;;;;;4929487;29;20311;-69
2022/10/25 01:10:36;;;;;;;69.25;34.95;;;12.30;99.90;;;;;;4931537;29;20099;-69
2022/10/25 01:13:03;;;;;;;71.63;34.00;;;12.40;99.90;;;;;;4931440;29;20051;-70
2022/10/25 01:15:39;;;;;;;67.97;34.08;;;12.40;99.90;;;;;;4931284;29;20122;-69
2022/10/25 01:18:21;;;;;;;55.72;32.67;;;12.50;99.90;;;;;;4931125;29;20043;-69
2022/10/25 01:20:59;;;;;;;63.70;30.27;;;12.50;99.90;;;;;;4930276;29;20048;-69
2022/10/25 01:23:36;;;;;;;56.25;30.42;;;12.50;99.90;;;;;;4930626;29;20048;-69
2022/10/25 01:26:21;;;;;;;74.10;31.88;;;12.60;99.90;;;;;;4935003;29;20110;-70
2022/10/25 01:29:18;;;;;;;56.50;28.85;;;12.60;99.90;;;;;;4930365;29;20063;-70
2022/10/25 01:31:49;;;;;;;66.72;30.83;;;12.60;99.90;;;;;;4897994;29;20847;-70
2022/10/25 01:34:23;;;;;;;65.35;33.00;;;12.60;99.90;;;;;;4943798;28;20135;-69
2022/10/25 01:37:28;;;;;;;52.17;29.33;;;12.60;99.90;;;;;;4940806;29;20047;-69
2022/10/25 01:40:03;;;;;;;54.05;27.00;;;12.60;99.90;;;;;;4910068;29;20087;-69
2022/10/25 01:42:37;;;;;;;62.17;32.70;;;12.60;99.90;;;;;;4945556;28;20108;-69
2022/10/25 01:45:03;;;;;;;57.80;30.17;;;12.80;99.90;;;;;;4927371;29;20056;-69
2022/10/25 01:47:51;;;;;;;59.97;29.08;;;12.60;99.90;;;;;;4945503;29;20054;-69
2022/10/25 01:50:26;;;;;;;53.08;28.98;;;12.70;99.90;;;;;;4928130;29;20043;-69
2022/10/25 01:52:52;;;;;;;50.45;28.67;;;12.60;99.90;;;;;;4929394;29;20044;-69
2022/10/25 01:55:19;;;;;;;49.55;26.70;;;12.70;99.90;;;;;;4944581;28;20477;-69
2022/10/25 01:58:02;;;;;;;51.05;28.92;;;12.60;99.90;;;;;;4934383;29;20048;-69
2022/10/25 02:00:37;;;;;;;62.88;30.70;;;12.60;99.90;;;;;;4929958;29;20099;-69
2022/10/25 02:03:13;;;;;;;56.08;28.75;;;12.60;99.90;;;;;;4944654;29;20054;-70
2022/10/25 02:05:47;;;;;;;50.53;29.15;;;12.60;99.90;;;;;;4925846;29;20412;-69
2022/10/25 02:08:34;;;;;;;50.53;30.90;;;12.60;99.90;;;;;;4928703;29;20044;-69
2022/10/25 02:11:13;;;;;;;59.17;28.08;;;12.60;99.90;;;;;;4930409;29;20135;-68
2022/10/25 02:14:10;;;;;;;59.55;28.38;;;12.60;99.90;;;;;;4930461;29;20547;-69
2022/10/25 02:16:44;;;;;;;47.65;25.25;;;12.60;99.90;;;;;;4923556;29;20056;-68
2022/10/25 02:19:17;;;;;;;58.80;29.45;;;12.60;99.90;;;;;;4938093;29;20071;-69
2022/10/25 02:21:46;;;;;;;51.95;27.27;;;12.60;99.90;;;;;;4932507;29;20050;-68
2022/10/25 02:24:22;;;;;;;49.40;26.13;;;12.60;99.90;;;;;;4944644;29;20123;-69
2022/10/25 02:26:49;;;;;;;55.35;27.15;;;12.60;99.90;;;;;;4928024;29;20052;-68
2022/10/25 02:29:17;;;;;;;63.00;27.80;;;12.60;99.90;;;;;;4929200;29;20058;-69
2022/10/25 02:31:43;;;;;;;48.03;27.83;;;12.60;99.90;;;;;;4927690;29;20401;-69
2022/10/25 02:34:09;;;;;;;47.72;26.38;;;12.60;99.90;;;;;;4930494;29;20076;-69
2022/10/25 02:36:35;;;;;;;50.20;26.80;;;12.60;99.90;;;;;;4930025;29;20051;-68
2022/10/25 02:39:02;;;;;;;54.70;27.67;;;12.60;99.90;;;;;;4932383;29;20047;-69
2022/10/25 02:41:29;;;;;;;49.97;26.15;;;12.60;99.90;;;;;;4926679;29;20369;-68
2022/10/25 02:43:55;;;;;;;45.53;24.63;;;12.70;99.90;;;;;;4929459;29;20114;-69
2022/10/25 02:46:22;;;;;;;51.58;25.50;;;12.60;99.90;;;;;;4930326;29;20047;-69
2022/10/25 02:48:48;;;;;;;54.27;27.87;;;12.60;99.90;;;;;;4927987;28;20126;-69
2022/10/25 02:51:15;;;;;;;46.85;25.90;;;12.60;99.90;;;;;;4929878;29;20119;-69
2022/10/25 02:53:41;;;;;;;45.78;26.77;;;12.70;99.90;;;;;;4929674;29;20043;-69
2022/10/25 02:56:12;;;;;;;46.50;26.13;;;12.60;99.90;;;;;;4929717;29;20532;-69
2022/10/25 02:58:39;;;;;;;50.45;27.65;;;12.60;99.90;;;;;;4930028;29;20052;-69
2022/10/25 03:01:05;;;;;;;55.08;27.27;;;12.60;99.90;;;;;;4929331;29;20131;-69
2022/10/25 03:03:32;;;;;;;53.40;24.50;;;12.70;99.90;;;;;;4930273;29;20228;-69
2022/10/25 03:05:58;;;;;;;41.83;27.02;;;12.70;99.90;;;;;;4930165;29;20039;-69
2022/10/25 03:08:24;;;;;;;47.05;25.70;;;12.70;99.90;;;;;;4929989;29;20496;-69
2022/10/25 03:10:51;;;;;;;45.60;24.60;;;12.70;99.90;;;;;;4931827;29;20048;-69
2022/10/25 03:13:17;;;;;;;47.92;26.80;;;12.70;99.90;;;;;;4931102;29;20050;-69
2022/10/25 03:15:44;;;;;;;58.47;25.85;;;12.70;99.90;;;;;;4932647;29;20048;-69
2022/10/25 03:18:11;;;;;;;51.67;25.98;;;12.80;99.90;;;;;;4942273;29;20438;-69
2022/10/25 03:20:37;;;;;;;45.40;24.58;;;12.70;99.90;;;;;;4931550;29;20063;-68
2022/10/25 03:23:03;;;;;;;56.15;25.50;;;12.70;99.90;;;;;;4933935;29;20460;-69
2022/10/25 03:25:29;;;;;;;45.10;26.00;;;12.80;99.90;;;;;;4933742;29;20041;-68
2022/10/25 03:27:54;;;;;;;50.75;27.05;;;12.70;99.90;;;;;;4933215;29;20102;-69
2022/10/25 03:30:20;;;;;;;58.17;28.20;;;12.70;99.90;;;;;;4933145;29;20067;-69
2022/10/25 03:32:46;;;;;;;48.08;26.85;;;12.80;99.90;;;;;;4919928;29;20055;-69
2022/10/25 03:35:12;;;;;;;59.03;26.70;;;12.80;99.90;;;;;;4927234;29;20466;-69
2022/10/25 03:37:38;;;;;;;58.22;26.63;;;12.70;99.90;;;;;;4947690;29;20063;-69
2022/10/25 03:40:04;;;;;;;48.78;25.27;;;12.70;99.90;;;;;;4936204;29;20044;-69
2022/10/25 03:42:30;;;;;;;56.38;27.08;;;12.80;99.90;;;;;;4932682;29;20103;-69
2022/10/25 03:44:55;;;;;;;49.58;26.20;;;12.80;99.90;;;;;;4932317;29;20055;-69
2022/10/25 03:47:21;;;;;;;54.35;26.92;;;12.80;99.90;;;;;;4933167;29;20135;-69
2022/10/25 03:49:47;;;;;;;57.67;27.60;;;12.80;99.90;;;;;;4931308;29;20086;-69
2022/10/25 03:52:12;;;;;;;60.47;26.65;;;12.80;99.90;;;;;;4930898;29;20048;-70
2022/10/25 03:54:41;;;;;;;56.53;25.75;;;12.80;99.90;;;;;;4934399;29;20051;-69
2022/10/25 03:57:07;;;;;;;43.50;24.25;;;12.80;99.90;;;;;;4942412;28;20047;-69
2022/10/25 03:59:33;;;;;;;43.42;24.42;;;12.80;99.90;;;;;;4931597;29;20048;-69
2022/10/25 04:01:59;;;;;;;45.88;26.10;;;12.90;99.90;;;;;;4932797;29;20127;-70
2022/10/25 04:04:25;;;;;;;51.65;24.65;;;12.80;99.90;;;;;;4931491;29;20051;-69
2022/10/25 04:06:51;;;;;;;55.47;25.85;;;12.90;99.90;;;;;;4945741;29;20464;-69
2022/10/25 04:09:16;;;;;;;45.97;25.17;;;12.80;99.90;;;;;;4930704;29;20043;-69
2022/10/25 04:11:42;;;;;;;51.45;27.02;;;12.80;99.90;;;;;;4929303;29;20043;-69
2022/10/25 04:14:08;;;;;;;61.85;27.45;;;12.80;99.90;;;;;;4930344;29;20071;-69
2022/10/25 04:16:34;;;;;;;50.85;26.52;;;12.80;99.90;;;;;;4932763;29;20051;-69
2022/10/25 04:19:01;;;;;;;59.33;27.27;;;12.80;99.90;;;;;;4931769;29;20489;-69
2022/10/25 04:21:26;;;;;;;59.03;27.00;;;12.80;99.90;;;;;;4932487;29;20047;-69
2022/10/25 04:23:52;;;;;;;56.17;26.27;;;12.70;99.90;;;;;;4930058;29;20047;-69
2022/10/25 04:26:19;;;;;;;61.13;26.70;;;12.70;99.90;;;;;;4927506;28;20131;-69
2022/10/25 04:28:53;;;;;;;56.53;27.65;;;12.70;99.90;;;;;;4933671;29;20063;-69
2022/10/25 04:31:20;;;;;;;58.38;25.80;;;12.70;99.90;;;;;;4934757;29;20047;-68
2022/10/25 04:33:53;;;;;;;54.03;26.70;;;12.70;99.90;;;;;;4931402;29;20047;-68
2022/10/25 04:36:20;;;;;;;52.95;26.13;;;12.70;99.90;;;;;;4930082;29;20047;-69
2022/10/25 04:38:50;;;;;;;59.53;27.30;;;12.70;99.90;;;;;;4942348;28;20051;-69
2022/10/25 04:41:16;;;;;;;48.92;25.13;;;12.70;99.90;;;;;;4942867;28;20060;-69
2022/10/25 04:43:42;;;;;;;52.08;26.77;;;12.80;99.90;;;;;;4932030;29;20063;-69
2022/10/25 04:46:08;;;;;;;42.80;24.85;;;12.70;99.90;;;;;;4933912;29;20401;-69
2022/10/25 04:48:36;;;;;;;62.85;26.52;;;12.60;99.90;;;;;;4932131;29;20504;-69
2022/10/25 04:51:02;;;;;;;52.72;24.63;;;12.60;99.90;;;;;;4928414;29;20059;-69
2022/10/25 04:53:28;;;;;;;50.85;25.98;;;12.60;99.90;;;;;;4929074;29;20055;-69
2022/10/25 04:55:58;;;;;;;49.15;25.15;;;12.70;99.90;;;;;;4932082;29;20159;-69
2022/10/25 04:58:25;;;;;;;42.83;25.33;;;12.60;99.90;;;;;;4945794;28;20047;-69
2022/10/25 05:00:51;;;;;;;62.05;29.13;;;12.60;99.90;;;;;;4929968;29;20070;-69
2022/10/25 05:03:18;;;;;;;61.03;26.95;;;12.60;99.90;;;;;;4930998;29;20051;-69
2022/10/25 05:05:43;;;;;;;44.42;24.52;;;12.60;99.90;;;;;;4928507;29;20054;-69
2022/10/25 05:08:09;;;;;;;52.95;25.88;;;12.70;99.90;;;;;;4946232;28;20043;-68
2022/10/25 05:10:35;;;;;;;54.13;28.17;;;12.60;99.90;;;;;;4921900;29;20505;-69
2022/10/25 05:13:01;;;;;;;51.47;26.83;;;12.60;99.90;;;;;;4934359;29;20047;-69
2022/10/25 05:15:27;;;;;;;50.72;26.00;;;12.70;99.90;;;;;;4932808;29;20051;-69
2022/10/25 05:17:57;;;;;;;54.33;28.73;;;12.60;99.90;;;;;;4927757;29;20047;-69
2022/10/25 05:20:22;;;;;;;61.90;28.58;;;12.50;99.90;;;;;;4936041;29;20562;-69
2022/10/25 05:22:48;;;;;;;52.65;29.15;;;12.60;99.90;;;;;;4929604;29;20123;-69
2022/10/25 05:25:14;;;;;;;55.55;28.95;;;12.50;99.90;;;;;;4946242;29;20138;-69
2022/10/25 05:27:40;;;;;;;58.88;25.88;;;12.60;99.90;;;;;;4929361;29;20528;-69
2022/10/25 05:30:06;;;;;;;68.72;31.05;;;12.60;99.90;;;;;;4930511;29;20055;-69
2022/10/25 05:32:32;;;;;;;53.20;26.75;;;12.60;99.90;;;;;;4928967;29;20051;-69
2022/10/25 05:34:58;;;;;;;63.53;28.63;;;12.50;99.90;;;;;;4927842;29;20050;-69
2022/10/25 05:37:24;;;;;;;69.50;29.45;;;12.50;99.90;;;;;;4938272;29;20035;-68
2022/10/25 05:39:50;;;;;;;62.20;27.60;;;12.50;99.90;;;;;;4929525;29;20481;-68
2022/10/25 05:42:15;;;;;;;50.10;23.98;;;12.50;99.90;;;;;;4929747;29;20055;-68
2022/10/25 05:44:41;;;;;;;53.67;26.00;;;12.50;99.90;;;;;;4930866;29;20723;-69
2022/10/25 05:47:08;;;;;;;55.63;26.17;;;12.50;99.90;;;;;;4931350;29;20465;-69
2022/10/25 05:49:38;;;;;;;50.25;24.30;;;12.40;99.90;;;;;;4926041;29;20052;-69
2022/10/25 05:52:05;;;;;;;54.05;23.08;;;12.40;99.90;;;;;;4929921;29;20497;-69
2022/10/25 05:54:31;;;;;;;51.40;24.07;;;12.40;99.90;;;;;;4930853;29;20175;-69
2022/10/25 05:56:57;;;;;;;56.50;24.77;;;12.40;99.90;;;;;;4928576;29;20043;-69
2022/10/25 05:59:23;;;;;;;54.08;24.52;;;12.40;99.90;;;;;;4945105;29;20054;-69
2022/10/25 06:01:48;;;;;;;51.35;24.42;;;12.40;99.90;;;;;;4929251;29;20937;-69
2022/10/25 06:04:15;;;;;;;50.20;22.77;;;12.40;99.90;;;;;;4926163;29;20048;-69
2022/10/25 06:06:43;;;;;;;58.30;26.92;;;12.40;99.90;;;;;;4940179;28;20134;-69
2022/10/25 06:09:10;;;;;;;46.10;23.42;;;12.40;99.90;;;;;;4943630;29;20051;-69
2022/10/25 06:11:36;;;;;;;49.90;24.02;;;12.40;99.90;;;;;;4929163;29;20155;-69
2022/10/25 06:14:03;;;;;;;55.97;23.33;;;12.40;99.90;;;;;;4947910;28;20605;-69
2022/10/25 06:16:29;;;;;;;43.70;22.08;;;12.40;99.90;;;;;;4936203;28;20062;-69
2022/10/25 06:18:55;;;;;;;49.92;22.58;;;12.50;99.90;;;;;;4928699;29;20060;-69
2022/10/25 06:21:24;;;;;;;64.43;25.90;;;12.30;99.90;;;;;;4929652;29;20183;-69
2022/10/25 06:23:51;;;;;;;45.92;22.10;;;12.30;99.90;;;;;;4926718;29;20105;-69
2022/10/25 06:26:20;;;;;;;46.80;21.33;;;12.30;99.90;;;;;;4928089;29;20083;-69
2022/10/25 06:28:45;;;;;;;45.80;22.45;;;12.30;99.90;;;;;;4929590;29;20122;-69
2022/10/25 06:31:14;;;;;;;59.00;21.02;;;12.20;99.90;;;;;;4928930;29;20132;-69
2022/10/25 06:33:41;;;;;;;46.25;21.92;;;12.40;99.90;;;;;;4928134;29;20194;-69
2022/10/25 06:36:20;;;;;;;48.13;22.88;;;12.30;99.90;;;;;;4929474;29;20082;-69
2022/10/25 06:38:47;;;;;;;47.28;24.13;;;12.30;99.90;;;;;;4924504;29;20044;-69
2022/10/25 06:41:15;;;;;;;52.33;24.20;;;12.30;99.90;;;;;;4928369;29;20052;-69
2022/10/25 06:43:41;;;;;;;54.17;22.42;;;12.40;99.90;;;;;;4927752;29;20056;-69
2022/10/25 06:46:09;;;;;;;53.47;22.48;;;12.30;99.90;;;;;;4929977;29;20110;-69
2022/10/25 06:48:35;;;;;;;;;;;12.40;99.90;;;;;;4930395;29;20054;-69
2022/10/25 06:51:02;;;;;;;43.67;21.30;;;12.30;99.90;;;;;;4930983;29;19926;-69
2022/10/25 06:53:28;;;;;;;46.10;23.33;;;12.40;99.90;;;;;;4924537;29;20136;-69
2022/10/25 06:56:02;;;;;;;48.58;21.63;;;12.40;99.90;;;;;;4931227;29;20648;-69
2022/10/25 06:58:29;;;;;;;47.80;22.63;;;12.40;99.90;;;;;;4934568;29;20102;-69
2022/10/25 07:00:58;;;;;;;49.17;23.65;;;12.40;99.90;;;;;;4940478;29;20148;-69
2022/10/25 07:03:29;;;;;;;48.65;20.35;;;12.50;99.90;;;;;;4933496;29;20532;-69
2022/10/25 07:05:57;;;;;;;48.83;20.98;;;12.50;99.90;;;;;;4933961;29;20066;-69
2022/10/25 07:08:23;;;;;;;;;;;12.60;99.90;;;;;;4950033;28;20103;-69
2022/10/25 07:10:55;;;;;;;64.00;20.65;;;12.60;99.90;;;;;;4930542;29;20325;-69
2022/10/25 07:13:21;;;;;;;57.78;19.63;;;12.60;99.90;;;;;;4931509;29;20815;-69
2022/10/25 07:15:47;;;;;;;60.78;21.30;;;12.70;99.90;;;;;;4929969;29;20552;-69
2022/10/25 07:18:12;;;;;;;56.47;20.45;;;12.60;99.90;;;;;;4931957;29;20130;-69
2022/10/25 07:20:38;;;;;;;49.25;20.80;;;12.70;99.90;;;;;;4930150;29;20079;-69
2022/10/25 07:23:03;;;;;;;56.67;19.85;;;12.80;99.90;;;;;;4931587;29;20061;-68
2022/10/25 07:25:30;;;;;;;50.33;18.15;;;12.90;99.90;;;;;;4929935;29;20044;-68
2022/10/25 07:27:56;;;;;;;39.58;19.02;;;12.90;99.90;;;;;;4931493;29;20051;-68
2022/10/25 07:30:21;;;;;;;43.33;19.83;;;13.00;99.90;;;;;;4948188;29;20069;-68
2022/10/25 07:32:47;;;;;;;60.33;19.20;;;13.00;99.90;;;;;;4930909;29;20048;-68
2022/10/25 07:35:13;;;;;;;45.42;20.55;;;13.00;99.90;;;;;;4933473;29;20051;-68
2022/10/25 07:37:39;;;;;;;73.03;21.13;;;13.10;99.90;;;;;;4930526;29;20040;-69
2022/10/25 07:40:05;;;;;;;52.70;20.17;;;13.10;99.90;;;;;;4931603;29;20130;-69
2022/10/25 07:42:31;;;;;;;43.53;18.67;;;13.20;99.90;;;;;;4932334;29;20587;-69
2022/10/25 07:44:56;;;;;;;39.05;18.48;;;13.20;99.90;;;;;;4945506;28;20056;-69
2022/10/25 07:47:22;;;;;;;42.17;18.73;;;13.30;99.90;;;;;;4929908;29;20537;-69
2022/10/25 07:49:47;;;;;;;50.47;18.17;;;13.30;99.90;;;;;;4931703;29;20107;-68
2022/10/25 07:52:13;;;;;;;50.90;20.70;;;13.20;99.90;;;;;;4946343;28;20058;-68
2022/10/25 07:54:38;;;;;;;48.22;19.05;;;13.30;99.90;;;;;;4932311;29;20122;-68
2022/10/25 07:57:05;;;;;;;44.10;20.52;;;13.40;99.90;;;;;;4946678;28;20107;-68
2022/10/25 07:59:31;;;;;;;44.33;19.15;;;13.30;99.90;;;;;;4930382;29;20106;-69
2022/10/25 08:01:57;;;;;;;55.10;19.73;;;13.40;99.90;;;;;;4932443;29;20047;-69
2022/10/25 08:04:23;;;;;;;40.20;19.15;;;13.40;99.90;;;;;;4930764;29;20051;-69
2022/10/25 08:06:48;;;;;;;44.53;18.75;;;13.50;99.90;;;;;;4930160;29;20528;-68
2022/10/25 08:09:14;;;;;;;52.03;19.63;;;13.50;99.90;;;;;;4937079;29;20151;-68
2022/10/25 08:11:40;;;;;;;45.05;19.35;;;13.40;99.90;;;;;;4931330;29;20417;-68
2022/10/25 08:14:05;;;;;;;50.00;20.98;;;13.50;99.90;;;;;;4931000;29;20055;-68
2022/10/25 08:16:31;;;;;;;59.20;20.83;;;13.50;99.90;;;;;;4932101;29;20048;-68
2022/10/25 08:18:57;;;;;;;40.10;19.75;;;13.70;99.90;;;;;;4932380;29;20400;-68
2022/10/25 08:21:23;;;;;;;39.33;16.80;;;13.80;99.90;;;;;;4924639;29;20464;-68
2022/10/25 08:23:49;;;;;;;41.13;21.80;;;13.80;99.90;;;;;;4931302;29;20055;-68
2022/10/25 08:26:15;;;;;;;52.25;21.50;;;13.90;99.90;;;;;;4931060;29;20058;-68
2022/10/25 08:28:40;;;;;;;50.65;21.05;;;13.90;99.90;;;;;;4930557;29;20063;-68
2022/10/25 08:31:07;;;;;;;50.20;21.52;;;13.90;99.90;;;;;;4933865;29;20580;-69
2022/10/25 08:33:33;;;;;;;52.63;20.35;;;13.90;99.90;;;;;;4936031;28;20638;-68
2022/10/25 08:36:00;;;;;;;41.53;20.17;;;14.10;99.90;;;;;;4932394;29;20678;-69
2022/10/25 08:38:26;;;;;;;49.27;21.67;;;14.10;99.90;;;;;;4931254;29;20130;-68
2022/10/25 08:41:13;;;;;;;62.10;25.42;;;14.20;99.90;;;;;;4931730;29;20464;-68
2022/10/25 08:44:03;;;;;;;47.88;20.85;;;14.40;99.90;;;;;;4928245;29;20134;-69
2022/10/25 08:46:35;;;;;;;53.63;22.20;;;14.40;99.90;;;;;;4929838;29;20064;-68
2022/10/25 08:49:31;;;;;;;35.88;18.92;;;14.50;99.90;;;;;;4929216;29;20055;-68
2022/10/25 08:51:59;;;;;;;51.40;21.10;;;14.50;99.90;;;;;;4925801;29;20090;-68
2022/10/25 08:54:36;;;;;;;47.10;19.42;;;14.50;99.90;;;;;;4914580;29;20047;-68
2022/10/25 08:57:12;;;;;;;45.25;19.48;;;14.60;99.90;;;;;;4929243;29;20102;-68
2022/10/25 08:59:41;;;;;;;55.83;21.05;;;14.60;99.90;;;;;;4929742;29;20047;-68
2022/10/25 09:02:20;;;;;;;57.47;20.13;;;14.60;99.90;;;;;;4931449;29;20040;-68
2022/10/25 09:04:46;;;;;;;46.67;19.65;;;14.70;99.90;;;;;;4939398;29;20390;-68
2022/10/25 09:07:39;;;;;;;39.90;19.02;;;14.80;99.90;;;;;;4930263;29;20119;-68
2022/10/25 09:10:29;;;;;;;45.75;19.42;;;14.80;99.90;;;;;;4930424;29;20408;-68
2022/10/25 09:13:13;;;;;;;41.08;18.77;;;14.90;99.90;;;;;;4930449;29;20177;-68
2022/10/25 09:16:10;;;;;;;46.30;19.35;;;14.90;99.90;;;;;;4946433;29;20091;-69
2022/10/25 09:18:56;;;;;;;39.97;18.65;;;15.10;99.90;;;;;;4930622;29;20039;-69
2022/10/25 09:21:56;;;;;;;45.53;20.52;;;15.10;99.90;;;;;;4930628;29;20044;-68
2022/10/25 09:24:32;;;;;;;31.33;16.05;;;15.10;99.90;;;;;;4915669;29;20059;-68
2022/10/25 09:27:20;;;;;;;57.55;17.98;;;15.00;99.90;;;;;;4919121;29;20382;-68
2022/10/25 09:29:59;;;;;;;33.70;16.67;;;15.00;99.90;;;;;;4926431;29;20056;-68
2022/10/25 09:32:35;;;;;;;32.88;15.98;;;14.90;99.90;;;;;;4930963;29;20043;-68
2022/10/25 09:35:03;;;;;;;37.80;17.05;;;14.90;99.90;;;;;;4930546;29;20127;-69
2022/10/25 09:37:41;;;;;;;36.28;14.63;;;14.90;99.90;;;;;;4930433;29;20042;-68
2022/10/25 09:40:20;;;;;;;28.98;15.23;;;14.90;99.90;;;;;;4930274;29;20050;-67
2022/10/25 09:42:53;;;;;;;27.80;14.68;;;14.80;99.90;;;;;;4926011;29;20079;-68
2022/10/25 09:45:39;;;;;;;30.55;15.57;;;14.70;99.90;;;;;;4929716;29;20485;-68
2022/10/25 09:48:24;;;;;;;40.20;14.77;;;14.70;99.90;;;;;;4921635;29;20047;-68
2022/10/25 09:51:37;;;;;;;28.05;14.05;;;14.70;99.90;;;;;;4924889;29;20043;-68
2022/10/25 09:54:30;;;;;;;25.30;13.40;;;14.60;99.90;;;;;;4898629;29;20058;-68
2022/10/25 09:56:56;;;;;;;40.47;13.77;;;14.60;99.90;;;;;;4927619;29;20107;-68
2022/10/25 09:59:22;;;;;;;31.77;12.95;;;14.80;99.90;;;;;;4930387;29;20504;-68
2022/10/25 10:01:48;;;;;;;19.50;11.95;;;14.80;99.90;;;;;;4927702;29;20047;-68
2022/10/25 10:04:33;;;;;;;29.60;11.88;;;14.70;99.90;;;;;;4927568;29;20044;-68
2022/10/25 10:07:10;;;;;;;34.63;13.07;;;14.70;99.90;;;;;;4930160;29;20055;-68
2022/10/25 10:09:38;;;;;;;30.83;12.57;;;14.80;99.90;;;;;;4930729;29;20070;-68
2022/10/25 10:12:05;;;;;;;28.00;11.70;;;14.80;99.90;;;;;;4928415;29;20043;-68
2022/10/25 10:14:39;;;;;;;23.13;11.47;;;14.90;99.90;;;;;;4930036;29;20127;-68
2022/10/25 10:17:10;;;;;;;34.90;13.15;;;15.00;99.90;;;;;;4929737;29;20130;-68
2022/10/25 10:19:36;;;;;;;29.13;10.95;;;15.00;99.90;;;;;;4932376;29;20907;-68
2022/10/25 10:22:14;;;;;;;26.55;10.15;;;14.90;99.90;;;;;;4925544;29;20051;-68
2022/10/25 10:24:46;;;;;;;28.93;12.13;;;15.00;99.90;;;;;;4934271;29;20070;-68
2022/10/25 10:27:20;;;;;;;36.38;12.60;;;15.10;99.90;;;;;;4935433;29;20609;-68
2022/10/25 10:29:49;;;;;;;28.85;11.52;;;14.90;99.90;;;;;;4948771;28;20051;-68
2022/10/25 10:32:35;;;;;;;20.73;9.98;;;15.00;99.90;;;;;;4931027;29;20064;-68
2022/10/25 10:35:03;;;;;;;25.67;11.10;;;15.00;99.90;;;;;;4941017;29;20047;-68
2022/10/25 10:37:31;;;;;;;34.45;11.73;;;14.80;99.90;;;;;;4936011;29;20091;-68
2022/10/25 10:40:01;;;;;;;26.37;10.33;;;14.80;99.90;;;;;;4933765;29;20060;-68
2022/10/25 10:42:31;;;;;;;24.10;10.75;;;14.70;99.90;;;;;;4933410;29;20299;-68
2022/10/25 10:45:09;;;;;;;23.48;9.93;;;14.80;99.90;;;;;;4949487;28;20062;-68
2022/10/25 10:47:50;;;;;;;24.38;10.27;;;14.80;99.90;;;;;;4933856;29;20052;-68
2022/10/25 10:50:22;;;;;;;24.30;9.77;;;15.00;99.90;;;;;;4938284;29;20036;-68
2022/10/25 10:52:56;;;;;;;40.42;10.02;;;15.00;99.90;;;;;;4936924;28;20048;-68
2022/10/25 10:55:48;;;;;;;22.98;9.20;;;15.10;99.90;;;;;;4932350;29;20051;-68
2022/10/25 10:58:24;;;;;;;33.90;9.00;;;15.10;99.90;;;;;;4933935;29;20058;-68
2022/10/25 11:00:52;;;;;;;17.35;8.35;;;15.10;99.90;;;;;;4938456;29;20040;-68
2022/10/25 11:03:39;;;;;;;22.90;8.35;;;15.20;99.90;;;;;;4933793;29;20437;-68
2022/10/25 11:06:27;;;;;;;30.77;9.98;;;15.30;99.90;;;;;;4934254;29;20052;-68
2022/10/25 11:09:18;;;;;;;27.27;9.55;;;15.60;99.90;;;;;;4931984;29;20639;-68
2022/10/25 11:12:01;;;;;;;25.08;9.70;;;15.70;99.90;;;;;;4932300;29;20094;-68
2022/10/25 11:14:27;;;;;;;20.55;8.85;;;15.80;99.90;;;;;;4933839;29;20595;-68
2022/10/25 11:16:53;;;;;;;13.82;8.38;;;15.60;99.90;;;;;;4935147;29;20079;-68
2022/10/25 11:19:39;;;;;;;18.15;7.22;;;15.70;99.90;;;;;;4931401;29;20071;-68
2022/10/25 11:22:24;;;;;;;15.77;8.02;;;15.70;99.90;;;;;;4931356;29;20151;-68
2022/10/25 11:24:55;;;;;;;22.23;9.73;;;15.80;99.90;;;;;;4931077;29;20142;-68
2022/10/25 11:27:35;;;;;;;19.75;8.20;;;16.00;99.90;;;;;;4933094;29;20060;-68
2022/10/25 11:30:06;;;;;;;23.83;8.18;;;16.20;99.90;;;;;;4933242;29;20140;-69
2022/10/25 11:32:53;;;;;;;22.88;9.40;;;16.30;99.90;;;;;;4933434;29;20135;-68
2022/10/25 11:35:48;;;;;;;19.80;8.05;;;16.40;99.90;;;;;;4930026;29;20094;-68
2022/10/25 11:38:35;;;;;;;27.30;8.88;;;16.40;99.90;;;;;;4932372;29;20060;-68
2022/10/25 11:41:20;;;;;;;21.05;8.50;;;16.20;99.90;;;;;;4945491;29;20056;-68
2022/10/25 11:43:48;;;;;;;23.85;7.55;;;16.20;99.90;;;;;;4934701;29;20067;-70
2022/10/25 11:46:42;;;;;;;24.75;8.80;;;16.20;99.90;;;;;;4925279;29;20043;-68
2022/10/25 11:49:55;;;;;;;29.90;10.35;;;16.30;99.90;;;;;;4932964;29;20452;-69
2022/10/25 11:52:33;;;;;;;16.23;8.10;;;16.30;99.90;;;;;;4913406;29;20759;-68
2022/10/25 11:55:16;;;;;;;22.90;7.97;;;16.40;99.90;;;;;;4937431;28;20085;-69
2022/10/25 11:58:28;;;;;;;19.15;8.60;;;16.50;99.90;;;;;;4927550;29;20408;-68
2022/10/25 12:01:15;;;;;;;27.73;7.75;;;16.40;99.90;;;;;;4923074;29;20103;-68
2022/10/25 12:04:21;;;;;;;16.02;8.52;;;16.40;99.90;;;;;;4929921;29;20046;-68
2022/10/25 12:06:53;;;;;;;14.93;7.63;;;16.30;99.90;;;;;;4932886;29;20845;-68
2022/10/25 12:09:40;;;;;;;15.13;8.20;;;16.20;99.90;;;;;;4932911;29;20043;-68
2022/10/25 12:12:11;;;;;;;13.13;7.47;;;16.20;99.90;;;;;;4933292;29;20044;-68
2022/10/25 12:14:53;;;;;;;15.88;7.32;;;16.10;99.90;;;;;;4931838;29;20669;-68
2022/10/25 12:17:28;;;;;;;11.95;7.65;;;16.20;99.90;;;;;;4932253;29;20445;-68
2022/10/25 12:19:57;;;;;;;11.95;6.93;;;16.20;99.90;;;;;;4931398;29;20142;-68
2022/10/25 12:22:27;;;;;;;12.30;7.82;;;16.30;99.90;;;;;;4931897;29;20043;-69
2022/10/25 12:25:17;;;;;;;12.63;7.70;;;16.40;99.90;;;;;;4928968;29;20035;-68
2022/10/25 12:27:45;;;;;;;12.13;7.18;;;16.30;99.90;;;;;;4929086;29;20055;-69
2022/10/25 12:30:16;;;;;;;13.73;7.25;;;16.20;99.90;;;;;;4929892;29;20060;-69
2022/10/25 12:32:58;;;;;;;18.05;8.32;;;16.10;99.90;;;;;;4930949;29;20040;-69
2022/10/25 12:35:28;;;;;;;12.45;7.03;;;16.20;99.90;;;;;;4924820;29;20083;-69
2022/10/25 12:37:57;;;;;;;20.17;8.15;;;16.20;99.90;;;;;;4942671;28;20039;-69
2022/10/25 12:40:24;;;;;;;25.17;9.27;;;16.20;99.90;;;;;;4930853;29;20047;-69
2022/10/25 12:42:58;;;;;;;19.35;7.45;;;16.30;99.90;;;;;;4932140;29;20047;-69
2022/10/25 12:46:05;;;;;;;15.95;6.95;;;16.30;99.90;;;;;;4931032;29;20052;-69
2022/10/25 12:49:09;;;;;;;14.10;6.22;;;16.40;99.90;;;;;;4910657;29;20052;-69
2022/10/25 12:51:56;;;;;;;9.43;5.43;;;16.50;99.90;;;;;;4930512;29;20079;-69
2022/10/25 12:54:40;;;;;;;28.60;7.45;;;16.50;99.90;;;;;;4943874;28;20031;-69